Time;durP1;ratioP1;P1;durP2;ratioP2;P2;SDS_P1;SDS_P2;PMS_P1;PMS_P2;Temp;Humidity;BMP_temperature;BMP_pressure;BME280_temperature;BME280_humidity;BME280_pressure;Samples;Min_cycle;Max_cycle;Signal;HPM_P1;HPM_P2
2022/08/12 00:42:52;;;;;;;4.95;3.60;;;21.30;99.90;;;;;;5117724;28;20379;-68
2022/08/12 00:45:18;;;;;;;4.90;3.60;;;21.30;99.90;;;;;;5118710;28;20050;-69
2022/08/12 00:47:43;;;;;;;6.38;3.63;;;21.30;99.90;;;;;;5134217;27;20035;-69
2022/08/12 00:50:17;;;;;;;9.82;3.22;;;21.20;99.90;;;;;;5118077;28;20035;-69
2022/08/12 00:52:48;;;;;;;7.25;3.90;;;21.20;99.90;;;;;;5118688;28;20039;-69
2022/08/12 00:55:14;;;;;;;5.65;3.63;;;21.20;99.90;;;;;;5118242;28;20440;-69
2022/08/12 00:57:46;;;;;;;4.47;3.78;;;21.20;99.90;;;;;;5117461;28;20092;-69
2022/08/12 01:00:23;;;;;;;6.93;4.47;;;21.20;99.90;;;;;;5118168;28;20051;-69
2022/08/12 01:02:56;;;;;;;5.07;3.58;;;21.10;99.90;;;;;;5117985;28;20047;-69
2022/08/12 01:13:47;;;;;;;4.85;3.20;;;21.10;99.90;;;;;;5118203;28;20104;-69
2022/08/12 01:16:15;;;;;;;6.55;4.25;;;21.00;99.90;;;;;;5117041;28;20340;-69
2022/08/12 01:18:43;;;;;;;5.40;4.05;;;21.00;99.90;;;;;;5117474;28;20040;-69
2022/08/12 01:21:15;;;;;;;7.78;3.92;;;21.00;99.90;;;;;;5117731;28;20036;-69
2022/08/12 01:23:59;;;;;;;5.50;3.75;;;21.00;99.90;;;;;;5117851;28;20130;-69
2022/08/12 01:26:25;;;;;;;6.00;3.45;;;21.10;99.90;;;;;;5117763;28;20036;-69
2022/08/12 01:28:57;;;;;;;5.90;3.80;;;21.00;99.90;;;;;;5116587;28;20451;-69
2022/08/12 01:31:25;;;;;;;5.57;3.97;;;21.00;99.90;;;;;;5117315;28;20050;-69
2022/08/12 01:34:06;;;;;;;4.63;3.95;;;21.10;99.90;;;;;;5117622;28;20067;-69
2022/08/12 01:36:40;;;;;;;5.38;3.97;;;21.00;99.90;;;;;;5117743;28;20035;-69
2022/08/12 01:39:06;;;;;;;8.50;3.75;;;21.10;99.90;;;;;;5116714;28;20046;-69
2022/08/12 01:41:39;;;;;;;5.57;4.30;;;21.00;99.90;;;;;;5116545;28;20052;-69
2022/08/12 01:44:08;;;;;;;6.15;3.92;;;21.00;99.90;;;;;;5116242;28;20459;-69
2022/08/12 01:46:44;;;;;;;6.45;4.32;;;20.90;99.90;;;;;;5116822;28;20040;-70
2022/08/12 01:49:39;;;;;;;7.28;3.70;;;20.90;99.90;;;;;;5117531;28;20118;-69
2022/08/12 01:52:06;;;;;;;6.88;3.97;;;20.90;99.90;;;;;;5116484;28;20043;-69
2022/08/12 01:54:43;;;;;;;7.15;4.35;;;20.80;99.90;;;;;;5117243;28;20032;-69
2022/08/12 01:57:43;;;;;;;6.75;4.60;;;20.80;99.90;;;;;;5117396;28;20135;-69
2022/08/12 02:00:14;;;;;;;6.63;4.30;;;20.90;99.90;;;;;;5129932;27;20055;-69
2022/08/12 02:02:56;;;;;;;6.28;4.03;;;20.80;99.90;;;;;;5116464;28;20446;-69
2022/08/12 02:12:07;;;;;;;6.88;4.70;;;20.60;99.90;;;;;;5054515;28;20118;-69
2022/08/12 02:14:47;;;;;;;6.50;4.35;;;20.60;99.90;;;;;;5116048;28;20344;-69
2022/08/12 02:17:38;;;;;;;7.72;4.78;;;20.60;99.90;;;;;;5116643;28;20075;-69
2022/08/12 02:20:16;;;;;;;7.55;5.07;;;20.60;99.90;;;;;;5116871;28;20050;-69
2022/08/12 02:22:46;;;;;;;10.48;4.78;;;20.60;99.90;;;;;;5116898;28;20043;-70
2022/08/12 02:25:35;;;;;;;6.22;4.60;;;20.60;99.90;;;;;;5117107;28;20028;-69
2022/08/12 02:28:02;;;;;;;8.23;5.13;;;20.50;99.90;;;;;;5116536;28;20055;-69
2022/08/12 02:30:31;;;;;;;6.75;5.10;;;20.50;99.90;;;;;;5132915;28;20047;-69
2022/08/12 02:33:00;;;;;;;6.53;5.13;;;20.60;99.90;;;;;;5132934;28;20044;-69
2022/08/12 02:35:32;;;;;;;10.63;4.93;;;20.50;99.90;;;;;;5117247;28;20332;-69
2022/08/12 02:38:03;;;;;;;6.25;4.47;;;20.50;99.90;;;;;;5116722;28;20075;-69
2022/08/12 02:40:29;;;;;;;9.13;5.15;;;20.50;99.90;;;;;;5116933;28;20443;-69
2022/08/12 02:43:20;;;;;;;10.27;5.15;;;20.50;99.90;;;;;;5119242;28;20039;-69
2022/08/12 02:45:54;;;;;;;8.02;5.43;;;20.60;99.90;;;;;;5120911;28;20401;-69
2022/08/12 02:48:29;;;;;;;7.35;5.53;;;20.50;99.90;;;;;;5120647;28;20039;-69
2022/08/12 02:51:02;;;;;;;9.93;5.63;;;20.50;99.90;;;;;;5120492;28;20044;-69
2022/08/12 02:53:31;;;;;;;8.93;5.60;;;20.40;99.90;;;;;;5119889;28;20302;-69
2022/08/12 02:56:01;;;;;;;7.80;5.63;;;20.40;99.90;;;;;;5120938;28;20348;-70
2022/08/12 02:58:30;;;;;;;9.15;5.55;;;20.40;99.90;;;;;;5120874;28;20045;-69
2022/08/12 03:00:59;;;;;;;8.50;5.70;;;20.40;99.90;;;;;;5120581;28;20118;-69
2022/08/12 03:03:25;;;;;;;7.18;5.45;;;20.50;99.90;;;;;;5120550;28;20397;-69
2022/08/12 03:05:58;;;;;;;8.68;5.18;;;20.50;99.90;;;;;;5120269;28;20335;-70
2022/08/12 03:08:30;;;;;;;8.05;5.50;;;20.40;99.90;;;;;;5120575;27;20078;-69
2022/08/12 03:11:03;;;;;;;8.40;5.70;;;20.50;99.90;;;;;;5120400;28;20044;-70
2022/08/12 03:13:32;;;;;;;11.77;6.40;;;20.50;99.90;;;;;;5119274;28;20032;-69
2022/08/12 03:15:58;;;;;;;12.15;6.68;;;20.60;99.90;;;;;;5120349;28;20035;-69
2022/08/12 03:18:30;;;;;;;6.78;5.50;;;20.50;99.90;;;;;;5119812;28;20328;-69
2022/08/12 03:21:00;;;;;;;9.70;5.65;;;20.60;99.90;;;;;;5120447;28;20047;-69
2022/08/12 03:23:27;;;;;;;10.82;7.25;;;20.60;99.90;;;;;;5119106;28;20089;-69
2022/08/12 03:25:57;;;;;;;9.50;5.50;;;20.60;99.90;;;;;;5120119;28;20043;-69
2022/08/12 03:31:09;;;;;;;10.70;5.70;;;20.60;99.90;;;;;;5120071;28;20051;-69
2022/08/12 03:33:38;;;;;;;8.95;5.78;;;20.60;99.90;;;;;;5120166;28;20040;-69
2022/08/12 03:36:06;;;;;;;11.63;5.75;;;20.60;99.90;;;;;;5119880;28;20067;-69
2022/08/12 03:38:36;;;;;;;10.00;5.60;;;20.50;99.90;;;;;;5119965;27;20050;-69
2022/08/12 04:00:46;;;;;;;8.65;6.05;;;20.20;99.90;;;;;;5119555;28;20055;-69
2022/08/12 04:06:10;;;;;;;7.18;5.93;;;20.20;99.90;;;;;;5095994;27;20122;-69
2022/08/12 04:08:38;;;;;;;6.45;5.05;;;20.20;99.90;;;;;;5119210;28;20492;-69
2022/08/12 04:13:49;;;;;;;8.93;6.30;;;20.20;99.90;;;;;;5119418;28;20051;-69
2022/08/12 04:16:15;;;;;;;9.65;5.53;;;20.20;99.90;;;;;;5119179;27;20047;-69
2022/08/12 04:18:43;;;;;;;8.60;5.75;;;20.20;99.90;;;;;;5134810;27;20040;-69
2022/08/12 04:21:09;;;;;;;8.00;5.57;;;20.20;99.90;;;;;;5118118;28;20043;-69
2022/08/12 04:23:41;;;;;;;9.10;5.88;;;20.20;99.90;;;;;;5118314;28;20050;-69
2022/08/12 04:26:08;;;;;;;12.35;5.68;;;20.20;99.90;;;;;;5119160;28;20035;-69
2022/08/12 04:28:34;;;;;;;7.45;5.75;;;20.10;99.90;;;;;;5118798;28;20467;-69
2022/08/12 04:31:00;;;;;;;8.10;5.25;;;20.20;99.90;;;;;;5118508;28;20421;-69
2022/08/12 04:33:26;;;;;;;7.78;5.35;;;20.20;99.90;;;;;;5118730;27;20040;-69
2022/08/12 04:35:55;;;;;;;7.45;5.43;;;20.20;99.90;;;;;;5118651;28;20380;-69
2022/08/12 04:38:22;;;;;;;10.25;5.38;;;20.10;99.90;;;;;;5118751;28;20089;-69
2022/08/12 04:40:48;;;;;;;10.63;5.28;;;20.10;99.90;;;;;;5118881;28;20039;-69
2022/08/12 04:43:14;;;;;;;8.57;4.97;;;20.10;99.90;;;;;;5118525;28;20455;-69
2022/08/12 04:45:40;;;;;;;6.70;4.82;;;20.10;99.90;;;;;;5118683;28;20125;-70
2022/08/12 04:48:05;;;;;;;9.88;5.40;;;20.10;99.90;;;;;;5117100;28;20386;-69
2022/08/12 04:50:32;;;;;;;9.35;5.80;;;20.10;99.90;;;;;;5118344;28;20373;-69
2022/08/12 04:52:59;;;;;;;7.70;4.90;;;20.10;99.90;;;;;;5118440;28;20042;-69
2022/08/12 04:55:26;;;;;;;7.15;4.97;;;20.10;99.90;;;;;;5118293;28;20419;-69
2022/08/12 04:57:52;;;;;;;8.93;4.80;;;20.20;99.90;;;;;;5118260;28;20035;-69
2022/08/12 05:00:18;;;;;;;9.73;4.80;;;20.10;99.90;;;;;;5118164;28;20042;-69
2022/08/12 05:02:44;;;;;;;8.00;5.13;;;20.20;99.90;;;;;;5118142;28;20104;-69
2022/08/12 05:05:19;;;;;;;8.45;4.95;;;20.20;99.90;;;;;;5117512;28;20039;-69
2022/08/12 05:07:49;;;;;;;7.70;4.82;;;20.20;99.90;;;;;;5117529;28;20092;-69
2022/08/12 05:10:16;;;;;;;8.50;4.95;;;20.20;99.90;;;;;;5117955;28;20086;-69
2022/08/12 05:12:46;;;;;;;14.02;6.43;;;20.20;99.90;;;;;;5118106;28;20067;-69
2022/08/12 05:15:12;;;;;;;13.68;5.75;;;20.30;99.90;;;;;;5117802;28;20492;-69
2022/08/12 05:17:42;;;;;;;10.23;5.78;;;20.20;99.90;;;;;;5116451;28;20424;-69
2022/08/12 05:20:10;;;;;;;12.50;6.00;;;20.20;99.90;;;;;;5116888;28;20043;-69
2022/08/12 05:22:37;;;;;;;8.15;5.20;;;20.30;99.90;;;;;;5133800;27;20141;-70
2022/08/12 05:25:05;;;;;;;9.20;5.35;;;20.30;99.90;;;;;;5117769;28;20443;-69
2022/08/12 05:27:34;;;;;;;7.35;4.82;;;20.40;99.90;;;;;;5117411;28;20104;-70
2022/08/12 05:30:00;;;;;;;9.60;5.45;;;20.60;99.90;;;;;;5116660;28;20055;-69
2022/08/12 05:32:27;;;;;;;9.02;5.50;;;20.80;99.90;;;;;;5117481;28;20035;-69
2022/08/12 05:34:52;;;;;;;7.18;4.60;;;20.90;99.90;;;;;;5117743;28;20386;-69
2022/08/12 05:37:22;;;;;;;8.45;4.22;;;21.10;99.90;;;;;;5117441;28;20157;-69
2022/08/12 05:39:48;;;;;;;8.77;5.28;;;21.30;99.90;;;;;;5117694;28;20320;-69
2022/08/12 05:42:14;;;;;;;10.90;5.38;;;21.40;99.90;;;;;;5117298;28;20032;-69
2022/08/12 05:44:40;;;;;;;6.20;3.72;;;21.60;99.90;;;;;;5117243;28;20097;-69
2022/08/12 05:47:06;;;;;;;10.40;4.63;;;21.60;99.90;;;;;;5117238;28;20078;-69
2022/08/12 05:49:33;;;;;;;7.40;4.13;;;21.70;99.90;;;;;;5117256;28;20032;-69
2022/08/12 05:52:00;;;;;;;8.20;4.70;;;21.80;99.90;;;;;;5117362;28;20043;-69
2022/08/12 05:54:26;;;;;;;6.28;4.57;;;21.90;99.90;;;;;;5117199;28;20073;-69
2022/08/12 05:56:52;;;;;;;9.70;4.82;;;21.90;99.90;;;;;;5117263;28;20040;-71
2022/08/12 05:59:20;;;;;;;10.85;4.68;;;22.10;99.90;;;;;;5117008;28;20043;-69
2022/08/12 06:01:46;;;;;;;8.65;4.70;;;22.10;99.90;;;;;;5116172;28;20074;-69
2022/08/12 06:04:13;;;;;;;6.18;3.80;;;22.00;99.90;;;;;;5117136;28;20428;-69
2022/08/12 06:06:40;;;;;;;8.27;4.30;;;22.10;99.90;;;;;;5116045;28;20040;-69
2022/08/12 06:09:12;;;;;;;5.75;3.83;;;22.30;99.90;;;;;;5115961;28;20107;-69
2022/08/12 06:11:41;;;;;;;6.30;4.15;;;22.40;99.90;;;;;;5117152;28;20137;-69
2022/08/12 06:14:07;;;;;;;5.57;3.65;;;22.30;99.90;;;;;;5117123;28;20036;-69
2022/08/12 06:16:34;;;;;;;7.13;4.00;;;22.30;99.90;;;;;;5116965;28;20333;-70
2022/08/12 06:19:00;;;;;;;7.10;3.45;;;22.50;99.90;;;;;;5116699;28;20114;-69
2022/08/12 06:21:25;;;;;;;7.55;3.70;;;22.60;99.90;;;;;;5117148;28;20040;-69
2022/08/12 06:23:51;;;;;;;8.43;4.13;;;22.70;99.90;;;;;;5115876;28;20044;-69
2022/08/12 06:26:19;;;;;;;6.82;4.35;;;22.70;99.90;;;;;;5116074;28;20031;-69
2022/08/12 06:28:50;;;;;;;7.68;4.35;;;22.50;99.90;;;;;;5115626;28;20390;-69
2022/08/12 06:31:18;;;;;;;6.75;4.65;;;22.50;99.90;;;;;;5117098;28;20104;-69
2022/08/12 06:33:46;;;;;;;8.73;4.45;;;22.70;99.90;;;;;;5132925;28;20039;-69
2022/08/12 06:36:15;;;;;;;5.20;4.13;;;22.90;99.90;;;;;;5116907;28;20313;-70
2022/08/12 06:38:41;;;;;;;11.55;3.83;;;23.00;99.90;;;;;;5116765;28;20071;-69
2022/08/12 06:43:53;;;;;;;11.38;4.25;;;23.00;99.90;;;;;;5116970;28;20378;-69
2022/08/12 06:46:20;;;;;;;10.23;4.10;;;23.10;99.90;;;;;;5115598;28;20097;-69
2022/08/12 06:48:48;;;;;;;6.93;4.05;;;23.20;99.90;;;;;;5116238;28;20086;-70
2022/08/12 06:51:14;;;;;;;7.63;4.15;;;23.30;99.90;;;;;;5116472;28;20093;-69
2022/08/12 06:53:42;;;;;;;7.47;4.55;;;23.50;99.90;;;;;;5116479;28;20047;-67
2022/08/12 06:56:08;;;;;;;8.20;4.30;;;23.60;99.90;;;;;;5115620;28;20035;-67
2022/08/12 06:58:38;;;;;;;9.05;4.80;;;23.70;99.90;;;;;;5115451;28;20081;-69
2022/08/12 07:01:05;;;;;;;8.27;4.47;;;23.80;99.90;;;;;;5117022;28;20032;-68
2022/08/12 07:03:31;;;;;;;8.23;3.97;;;23.80;99.90;;;;;;5116478;28;20114;-68
2022/08/12 07:06:02;;;;;;;8.98;4.57;;;23.80;99.90;;;;;;5116804;28;20040;-68
2022/08/12 07:08:30;;;;;;;6.45;4.32;;;23.80;99.90;;;;;;5116535;28;20046;-69
2022/08/12 07:11:01;;;;;;;5.95;4.63;;;23.70;99.90;;;;;;5116359;28;20046;-70
2022/08/12 07:13:36;;;;;;;7.40;4.20;;;23.70;99.90;;;;;;5116472;28;20423;-73
2022/08/12 07:16:02;;;;;;;9.68;4.55;;;23.80;99.90;;;;;;5116260;28;20028;-72
2022/08/12 07:18:31;;;;;;;9.10;5.25;;;23.80;99.90;;;;;;5116139;28;20036;-71
2022/08/12 07:21:00;;;;;;;9.85;4.93;;;23.70;99.90;;;;;;5116443;28;20043;-73
2022/08/12 07:23:32;;;;;;;8.02;5.00;;;23.70;99.90;;;;;;5116388;28;20079;-68
2022/08/12 07:25:57;;;;;;;9.40;5.55;;;23.80;99.90;;;;;;5115222;28;20493;-68
2022/08/12 07:28:26;;;;;;;10.02;5.30;;;23.90;99.90;;;;;;5116559;28;20089;-69
2022/08/12 07:30:53;;;;;;;8.32;4.93;;;23.90;99.90;;;;;;5118860;28;20051;-69
2022/08/12 07:33:21;;;;;;;8.07;5.00;;;24.00;99.90;;;;;;5120040;28;20067;-68
2022/08/12 07:35:49;;;;;;;7.20;4.80;;;24.30;99.90;;;;;;5120039;28;20039;-68
2022/08/12 07:38:29;;;;;;;8.77;4.38;;;24.30;99.90;;;;;;5120041;28;20036;-68
2022/08/12 07:41:02;;;;;;;8.75;4.70;;;24.30;99.90;;;;;;5119935;28;20123;-68
2022/08/12 07:43:30;;;;;;;6.88;3.95;;;24.60;99.90;;;;;;5119748;28;20071;-68
2022/08/12 07:45:56;;;;;;;8.10;4.00;;;24.80;99.90;;;;;;5119578;28;20573;-68
2022/08/12 07:48:24;;;;;;;5.88;3.80;;;25.00;99.90;;;;;;5118469;28;20081;-68
2022/08/12 07:50:50;;;;;;;17.98;4.35;;;25.20;99.90;;;;;;5119707;28;20044;-68
2022/08/12 07:53:16;;;;;;;8.70;4.00;;;25.20;99.80;;;;;;5118504;28;20439;-69
2022/08/12 07:55:43;;;;;;;8.27;4.13;;;25.40;99.70;;;;;;5119464;28;20039;-69
2022/08/12 07:58:10;;;;;;;7.07;3.95;;;25.40;99.70;;;;;;5119437;28;20043;-69
2022/08/12 08:00:39;;;;;;;6.20;4.00;;;25.40;99.60;;;;;;5119588;28;20070;-69
2022/08/12 08:03:06;;;;;;;8.07;3.60;;;25.50;99.50;;;;;;5119554;28;20345;-85
2022/08/12 08:06:15;;;;;;;10.82;3.63;;;25.10;99.40;;;;;;5116760;27;20074;-86
2022/08/12 08:08:27;;;;;;;7.38;3.70;;;24.90;99.90;;;;;;5136638;27;20039;-83
2022/08/12 08:13:43;;;;;;;11.90;3.80;;;24.80;99.80;;;;;;5133689;27;20376;-74
2022/08/12 08:16:11;;;;;;;8.00;4.20;;;24.80;99.80;;;;;;5139415;27;20046;-70
2022/08/12 08:18:37;;;;;;;10.32;4.00;;;24.90;99.80;;;;;;5120718;27;20035;-70
2022/08/12 08:21:03;;;;;;;8.93;3.97;;;25.20;99.70;;;;;;5139461;27;20039;-70
2022/08/12 08:26:14;;;;;;;8.38;3.70;;;25.70;99.70;;;;;;5118765;28;20121;-70
2022/08/12 08:28:41;;;;;;;16.75;4.38;;;25.90;99.50;;;;;;5118502;28;20067;-70
2022/08/12 08:31:07;;;;;;;9.75;3.80;;;26.10;99.00;;;;;;5117864;27;20130;-70
2022/08/12 08:33:33;;;;;;;6.85;3.58;;;26.30;99.20;;;;;;5129447;27;20110;-70
2022/08/12 08:35:59;;;;;;;8.50;3.63;;;26.60;99.30;;;;;;5139317;27;20035;-70
2022/08/12 08:38:25;;;;;;;8.45;3.67;;;26.80;99.20;;;;;;5139219;27;20031;-70
2022/08/12 08:43:35;;;;;;;8.30;4.28;;;26.80;98.80;;;;;;5138784;27;20339;-70
2022/08/12 08:46:04;;;;;;;10.43;3.90;;;26.90;99.00;;;;;;5137723;27;20035;-70
2022/08/12 08:48:33;;;;;;;9.70;3.58;;;26.90;98.70;;;;;;5117747;28;20420;-70
2022/08/12 08:51:00;;;;;;;6.25;3.67;;;27.10;98.70;;;;;;5154152;27;20043;-70
2022/08/12 08:53:26;;;;;;;9.63;3.60;;;27.10;99.00;;;;;;5138857;27;20113;-70
2022/08/12 08:55:54;;;;;;;10.23;4.60;;;27.40;98.90;;;;;;5139200;27;20039;-69
2022/08/12 08:58:20;;;;;;;6.80;3.97;;;27.80;98.70;;;;;;5138970;27;20069;-69
2022/08/12 09:00:49;;;;;;;10.18;3.63;;;27.70;98.60;;;;;;5133419;27;20067;-69
2022/08/12 09:03:16;;;;;;;9.63;3.85;;;27.90;98.80;;;;;;5133874;27;20059;-77
2022/08/12 09:05:42;;;;;;;10.75;4.22;;;27.90;98.50;;;;;;5135184;27;20039;-70
2022/08/12 09:08:08;;;;;;;7.05;4.57;;;28.00;98.50;;;;;;5136735;27;20043;-68
2022/08/12 09:10:34;;;;;;;11.25;5.10;;;28.10;98.20;;;;;;5137584;27;20051;-68
2022/08/12 09:15:46;;;;;;;9.55;4.63;;;28.30;98.10;;;;;;5138809;27;20108;-69
2022/08/12 09:18:12;;;;;;;10.15;4.90;;;28.50;98.10;;;;;;5138192;27;20032;-69
2022/08/12 09:20:39;;;;;;;7.45;4.07;;;28.70;98.00;;;;;;5137548;27;20095;-69
2022/08/12 09:23:09;;;;;;;9.30;3.53;;;28.70;97.30;;;;;;5138251;27;20046;-71
2022/08/12 09:25:39;;;;;;;9.40;3.70;;;28.60;97.40;;;;;;5138279;27;20047;-69
2022/08/12 09:28:07;;;;;;;9.02;3.65;;;28.70;97.40;;;;;;5137073;27;20043;-70
2022/08/12 09:30:33;;;;;;;5.65;3.80;;;28.70;97.60;;;;;;5138238;27;20044;-71
2022/08/12 09:32:59;;;;;;;8.45;3.72;;;28.70;98.00;;;;;;5138429;27;20438;-70
2022/08/12 09:35:30;;;;;;;9.63;4.03;;;28.80;98.00;;;;;;5138300;27;20027;-70
2022/08/12 09:37:56;;;;;;;6.10;4.03;;;28.90;97.90;;;;;;5138181;27;20039;-70
2022/08/12 09:40:24;;;;;;;7.45;3.83;;;29.00;97.80;;;;;;5138005;27;20423;-70
2022/08/12 09:45:35;;;;;;;8.82;3.53;;;29.30;97.70;;;;;;5137999;27;20163;-70
2022/08/12 09:48:05;;;;;;;5.50;2.55;;;29.50;97.80;;;;;;5136653;27;20035;-70
2022/08/12 09:50:32;;;;;;;5.10;2.50;;;29.60;97.40;;;;;;5137523;27;20036;-70
2022/08/12 09:53:08;;;;;;;11.63;2.60;;;29.70;97.10;;;;;;5136800;27;20078;-73
2022/08/12 09:55:36;;;;;;;6.25;2.60;;;29.90;97.20;;;;;;5122843;27;20031;-69
2022/08/12 09:58:03;;;;;;;6.63;2.47;;;30.00;96.70;;;;;;5132905;27;20031;-69
2022/08/12 10:00:33;;;;;;;8.60;2.50;;;30.00;96.90;;;;;;5135570;27;20146;-69
2022/08/12 10:03:02;;;;;;;8.50;2.60;;;30.10;96.90;;;;;;5117147;28;20052;-69
2022/08/12 10:05:32;;;;;;;3.67;2.35;;;30.10;96.60;;;;;;5117141;28;20039;-69
2022/08/12 10:07:59;;;;;;;7.78;2.70;;;30.30;96.50;;;;;;5131414;27;20072;-70
2022/08/12 10:10:26;;;;;;;5.82;2.85;;;30.60;97.00;;;;;;5137437;27;20118;-70
2022/08/12 10:15:43;;;;;;;7.00;2.60;;;30.80;96.30;;;;;;5116981;28;20113;-73
2022/08/12 10:18:10;;;;;;;4.47;2.20;;;30.80;95.90;;;;;;5116586;28;20039;-68
2022/08/12 10:20:37;;;;;;;8.55;2.72;;;31.10;95.90;;;;;;5098422;28;20069;-68
2022/08/12 10:23:04;;;;;;;4.45;2.30;;;31.20;95.80;;;;;;5115712;28;20464;-69
2022/08/12 10:30:59;;;;;;;6.90;2.17;;;31.50;95.40;;;;;;5116324;28;20439;-68
2022/08/12 10:33:25;;;;;;;5.40;2.15;;;31.30;94.80;;;;;;5116592;28;20089;-68
2022/08/12 10:35:52;;;;;;;8.80;2.10;;;31.60;95.20;;;;;;5115532;28;20032;-68
2022/08/12 10:38:18;;;;;;;5.70;2.08;;;31.50;94.80;;;;;;5116346;28;20354;-69
2022/08/12 10:43:41;;;;;;;3.35;2.00;;;31.70;94.40;;;;;;5130571;28;20039;-71
2022/08/12 10:46:08;;;;;;;4.47;1.95;;;31.90;94.10;;;;;;5116487;28;20432;-71
2022/08/12 10:48:34;;;;;;;5.70;2.20;;;31.80;94.20;;;;;;5116276;28;20039;-71
2022/08/12 10:51:02;;;;;;;4.28;2.30;;;31.90;93.50;;;;;;5133552;28;20043;-69
2022/08/12 10:53:29;;;;;;;4.90;2.28;;;32.00;94.10;;;;;;5119221;28;20397;-71
2022/08/12 10:55:55;;;;;;;7.40;2.20;;;32.20;94.60;;;;;;5137175;27;20366;-71
2022/08/12 10:58:21;;;;;;;5.28;2.38;;;32.60;94.20;;;;;;5136109;27;20047;-71
2022/08/12 11:00:46;;;;;;;4.78;1.77;;;33.00;93.70;;;;;;5137044;28;20408;-70
2022/08/12 11:03:12;;;;;;;2.30;1.55;;;33.10;93.00;;;;;;5138186;27;20100;-71
2022/08/12 11:05:38;;;;;;;4.05;1.73;;;33.20;93.70;;;;;;5141107;27;20385;-70
2022/08/12 11:08:04;;;;;;;5.93;2.22;;;33.50;93.20;;;;;;5140064;27;20035;-73
2022/08/12 11:10:30;;;;;;;2.00;1.80;;;33.50;92.70;;;;;;5141028;27;20042;-75
2022/08/12 11:12:56;;;;;;;5.72;1.80;;;33.50;92.60;;;;;;5140713;27;20043;-72
2022/08/12 11:15:22;;;;;;;4.80;2.17;;;33.70;93.10;;;;;;5139765;27;20153;-71
2022/08/12 11:17:49;;;;;;;4.10;1.92;;;33.80;92.30;;;;;;5134927;27;20038;-71
2022/08/12 11:20:14;;;;;;;6.07;1.90;;;33.80;92.40;;;;;;5131240;27;20093;-72
2022/08/12 11:22:40;;;;;;;5.00;1.40;;;34.00;92.60;;;;;;5124236;27;20047;-73
2022/08/12 11:25:09;;;;;;;5.45;1.83;;;34.20;92.60;;;;;;5136102;27;20043;-72
2022/08/12 11:27:35;;;;;;;4.68;2.22;;;34.10;91.90;;;;;;5129577;27;20043;-70
2022/08/12 11:30:00;;;;;;;5.03;1.70;;;34.10;92.10;;;;;;5128097;27;20056;-72
2022/08/12 11:32:26;;;;;;;5.53;1.70;;;34.10;92.30;;;;;;5117362;28;20046;-71
2022/08/12 11:34:57;;;;;;;4.45;1.85;;;34.30;92.10;;;;;;5153548;27;20079;-71
2022/08/12 11:37:23;;;;;;;5.10;1.80;;;34.30;92.00;;;;;;5153517;27;20424;-71
2022/08/12 11:39:48;;;;;;;4.03;1.85;;;34.40;91.80;;;;;;5119868;28;20044;-72
2022/08/12 11:42:14;;;;;;;3.60;1.70;;;34.40;91.70;;;;;;5153465;27;20036;-72
2022/08/12 11:44:40;;;;;;;3.80;1.80;;;34.70;91.60;;;;;;5118829;28;20046;-72
2022/08/12 11:47:05;;;;;;;4.95;1.80;;;34.50;91.60;;;;;;5119717;28;20040;-73
2022/08/12 11:49:31;;;;;;;2.20;1.70;;;34.50;91.70;;;;;;5118499;28;20048;-72
2022/08/12 11:51:57;;;;;;;6.20;1.75;;;34.60;91.70;;;;;;5135660;27;20118;-72
2022/08/12 11:54:22;;;;;;;3.83;2.03;;;34.60;91.50;;;;;;5119838;28;20043;-72
2022/08/12 11:56:48;;;;;;;6.43;1.90;;;34.70;91.80;;;;;;5152830;27;20344;-72
2022/08/12 11:59:14;;;;;;;2.67;1.88;;;34.70;92.30;;;;;;5153140;27;20039;-72
2022/08/12 12:01:39;;;;;;;5.88;1.90;;;34.80;92.60;;;;;;5135439;27;20432;-73
2022/08/12 12:04:05;;;;;;;7.40;1.90;;;35.20;92.60;;;;;;5152975;27;20044;-72
2022/08/12 12:06:34;;;;;;;4.50;2.00;;;35.40;92.20;;;;;;5119472;28;20476;-73
2022/08/12 12:09:00;;;;;;;3.78;1.85;;;35.30;91.50;;;;;;5119397;28;20062;-72
2022/08/12 12:11:26;;;;;;;3.53;1.85;;;35.50;92.20;;;;;;5126496;27;20412;-75
2022/08/12 12:13:51;;;;;;;6.13;2.10;;;36.00;92.40;;;;;;5120043;27;20420;-73
2022/08/12 12:16:18;;;;;;;3.58;1.80;;;36.20;92.50;;;;;;5118942;28;20032;-73
2022/08/12 12:18:44;;;;;;;7.40;2.20;;;36.00;92.30;;;;;;5118442;28;20035;-73
2022/08/12 12:21:10;;;;;;;6.68;2.00;;;36.30;92.10;;;;;;5119112;28;20082;-72
2022/08/12 12:23:35;;;;;;;6.43;2.00;;;36.20;92.10;;;;;;5118770;28;20071;-72
2022/08/12 12:26:02;;;;;;;4.18;1.88;;;36.20;92.30;;;;;;5118786;27;20110;-73
2022/08/12 12:28:28;;;;;;;5.75;1.80;;;36.10;92.10;;;;;;5117910;27;20111;-73
2022/08/12 12:30:54;;;;;;;3.50;1.52;;;35.90;92.20;;;;;;5117297;28;20047;-74
2022/08/12 12:33:20;;;;;;;5.05;1.73;;;35.80;91.90;;;;;;5134970;27;20039;-73
2022/08/12 12:35:46;;;;;;;5.05;2.00;;;36.00;91.90;;;;;;5134831;27;20039;-73
2022/08/12 12:38:13;;;;;;;4.53;2.10;;;36.40;91.90;;;;;;5118874;28;20039;-72
2022/08/12 12:40:42;;;;;;;2.50;1.60;;;36.40;92.00;;;;;;5117350;28;20048;-73
2022/08/12 12:43:08;;;;;;;3.38;1.80;;;36.40;91.90;;;;;;5118268;28;20420;-73
2022/08/12 12:45:35;;;;;;;3.33;1.70;;;36.60;91.60;;;;;;5118995;27;20046;-72
2022/08/12 12:48:07;;;;;;;5.75;1.75;;;36.80;91.70;;;;;;5117976;27;20039;-74
2022/08/12 12:50:34;;;;;;;2.47;1.73;;;36.80;91.90;;;;;;5119908;27;20043;-74
2022/08/12 12:53:00;;;;;;;2.33;1.60;;;37.10;92.00;;;;;;5125801;27;20050;-72
2022/08/12 12:55:27;;;;;;;3.15;1.42;;;36.90;91.60;;;;;;5127395;27;20023;-71
2022/08/12 12:57:57;;;;;;;3.80;1.35;;;36.90;90.80;;;;;;5138608;27;20035;-73
2022/08/12 13:00:24;;;;;;;4.10;1.60;;;36.80;90.90;;;;;;5121973;27;20039;-72
2022/08/12 13:02:51;;;;;;;1.98;1.55;;;37.10;90.80;;;;;;5118649;27;20138;-72
2022/08/12 13:05:21;;;;;;;3.28;1.48;;;37.10;90.80;;;;;;5118168;27;20075;-73
2022/08/12 13:07:49;;;;;;;6.07;1.50;;;37.00;90.90;;;;;;5118208;28;20109;-72
2022/08/12 13:10:14;;;;;;;3.28;1.70;;;36.60;91.00;;;;;;5133898;27;20047;-72
2022/08/12 13:12:41;;;;;;;4.95;1.85;;;36.90;90.80;;;;;;5116571;28;20119;-72
2022/08/12 13:15:11;;;;;;;2.50;1.30;;;37.30;91.10;;;;;;5117803;28;20158;-73
2022/08/12 13:17:36;;;;;;;5.63;1.45;;;37.00;90.90;;;;;;5117371;28;20089;-73
2022/08/12 13:20:04;;;;;;;6.00;1.48;;;37.00;90.80;;;;;;5117184;27;20039;-73
2022/08/12 13:22:33;;;;;;;4.57;2.08;;;37.20;90.50;;;;;;5117681;28;20096;-73
2022/08/12 13:25:00;;;;;;;3.33;1.50;;;37.10;90.30;;;;;;5117384;28;20050;-73
2022/08/12 13:27:28;;;;;;;3.58;1.50;;;37.00;90.30;;;;;;5117014;28;20050;-73
2022/08/12 13:29:55;;;;;;;5.35;1.70;;;37.10;90.70;;;;;;5117479;28;20428;-73
2022/08/12 13:32:21;;;;;;;2.58;1.33;;;37.40;90.50;;;;;;5117417;28;20043;-74
2022/08/12 13:34:52;;;;;;;3.42;1.65;;;37.20;90.60;;;;;;5116477;28;20051;-72
2022/08/12 13:37:23;;;;;;;4.28;1.60;;;37.20;90.40;;;;;;5123326;27;20134;-73
2022/08/12 13:39:51;;;;;;;2.30;1.15;;;37.10;90.50;;;;;;5137794;27;20046;-74
2022/08/12 13:42:18;;;;;;;2.25;1.58;;;37.10;90.40;;;;;;5138088;27;20114;-73
2022/08/12 13:44:44;;;;;;;2.88;1.40;;;37.40;90.60;;;;;;5137784;27;20045;-73
2022/08/12 13:47:10;;;;;;;7.22;1.42;;;37.30;90.90;;;;;;5137230;27;20043;-73
2022/08/12 13:49:36;;;;;;;1.73;1.42;;;37.30;90.40;;;;;;5136239;27;20057;-73
2022/08/12 13:52:02;;;;;;;2.13;1.35;;;37.00;90.30;;;;;;5135379;27;20039;-74
2022/08/12 13:54:28;;;;;;;5.63;1.95;;;37.00;90.30;;;;;;5136935;27;20047;-74
2022/08/12 13:56:54;;;;;;;3.53;1.50;;;36.70;90.20;;;;;;5137879;27;20370;-71
2022/08/12 13:59:20;;;;;;;5.65;1.50;;;36.60;90.20;;;;;;5137895;27;20049;-70
2022/08/12 14:01:52;;;;;;;1.95;1.30;;;36.40;90.30;;;;;;5137835;27;20039;-72
2022/08/12 14:04:17;;;;;;;7.55;1.48;;;36.50;90.50;;;;;;5138082;27;20067;-70
2022/08/12 14:06:44;;;;;;;6.68;1.50;;;36.20;90.00;;;;;;5137716;27;20420;-72
2022/08/12 14:09:11;;;;;;;2.78;1.55;;;36.00;90.10;;;;;;5138010;27;20046;-71
2022/08/12 14:11:36;;;;;;;10.40;1.80;;;36.10;90.40;;;;;;5137514;27;20080;-70
2022/08/12 14:14:02;;;;;;;4.03;1.73;;;35.80;90.00;;;;;;5136678;27;20121;-71
2022/08/12 14:16:28;;;;;;;2.15;1.50;;;36.00;90.40;;;;;;5136763;27;20042;-71
2022/08/12 14:18:54;;;;;;;2.28;1.20;;;35.80;90.30;;;;;;5137250;27;20339;-71
2022/08/12 14:21:20;;;;;;;3.33;1.45;;;35.60;90.40;;;;;;5137436;27;20055;-71
2022/08/12 14:23:49;;;;;;;2.03;1.30;;;35.70;90.40;;;;;;5137704;27;20126;-71
2022/08/12 14:26:25;;;;;;;3.53;1.48;;;35.80;90.30;;;;;;5136822;28;20408;-71
2022/08/12 14:28:54;;;;;;;4.03;1.30;;;35.80;90.30;;;;;;5137451;27;20130;-71
2022/08/12 14:31:22;;;;;;;5.05;1.70;;;36.00;90.50;;;;;;5136567;28;20047;-71
2022/08/12 14:33:51;;;;;;;3.47;1.83;;;35.80;90.10;;;;;;5136516;28;20045;-71
2022/08/12 14:36:24;;;;;;;6.32;1.80;;;36.00;89.90;;;;;;5137329;27;20081;-71
2022/08/12 14:38:53;;;;;;;5.05;1.40;;;35.80;89.90;;;;;;5138765;27;20488;-71
2022/08/12 14:41:24;;;;;;;5.53;1.63;;;36.00;89.90;;;;;;5141676;27;20068;-70
2022/08/12 14:43:50;;;;;;;3.13;1.38;;;36.00;90.00;;;;;;5140569;27;20043;-71